Cumberland Gap, Tennessee
Current Conditions -  °F | °C
As of 6:35 PM on Monday 22 Dec 2014 (Local Time) from K1A6 Reporting Station
Overcast Overcast  
Wind Chill: 49°   Ceiling: 5000
Heat Index: 49°   Visibility: 10mi
Dew Point: 47°   Wind: 0mph
Humidity: 95%   Direction: NA
Pressure: 29.85"   Gusts: NA
Location:  36.6°N, 83.67°W
Report Text: K1A6 222335Z AUTO 00000KT 10SM BKN050 OVC065 09/09 A2985 RMK AO2 T00920085
Loading
Personal Weather Stations






























Interactive Weather Map New forecast layout! Learn more

10-Day Weather Forecast

Advertisements
Track Severe Weather on mobile